Time;durP1;ratioP1;P1;durP2;ratioP2;P2;SDS_P1;SDS_P2;PMS_P1;PMS_P2;Temp;Humidity;BMP_temperature;BMP_pressure;BME280_temperature;BME280_humidity;BME280_pressure;Samples;Min_cycle;Max_cycle;Signal;HPM_P1;HPM_P2
2022/05/15 00:02:02;;;;;;;5.10;2.80;;;16.20;87.70;;;;;;5097463;28;20027;-66
2022/05/15 00:04:28;;;;;;;4.20;2.60;;;16.10;88.50;;;;;;5096557;28;20028;-66
2022/05/15 00:06:54;;;;;;;6.22;2.63;;;15.80;88.90;;;;;;5096473;28;20044;-66
2022/05/15 00:09:19;;;;;;;5.72;2.65;;;15.70;90.10;;;;;;5098166;28;20058;-66
2022/05/15 00:11:45;;;;;;;5.72;2.70;;;15.70;90.90;;;;;;5097175;28;20469;-67
2022/05/15 00:14:10;;;;;;;4.90;2.53;;;15.60;91.40;;;;;;5078281;28;20032;-66
2022/05/15 00:16:36;;;;;;;6.40;2.60;;;15.50;92.00;;;;;;5096644;28;20754;-66
2022/05/15 00:19:02;;;;;;;6.60;2.57;;;15.40;92.60;;;;;;5096888;28;20055;-67
2022/05/15 00:21:28;;;;;;;;;;;15.40;92.70;;;;;;5079021;28;20285;-66
2022/05/15 00:23:54;;;;;;;4.57;2.47;;;15.40;93.10;;;;;;5096344;28;19904;-66
2022/05/15 00:26:19;;;;;;;4.70;2.28;;;15.30;93.10;;;;;;5095936;28;20020;-65
2022/05/15 00:28:45;;;;;;;4.93;2.67;;;15.20;93.40;;;;;;5077303;28;20028;-71
2022/05/15 00:31:11;;;;;;;5.80;2.63;;;15.20;94.00;;;;;;5077381;28;20062;-65
2022/05/15 00:33:36;;;;;;;6.00;2.63;;;15.10;94.50;;;;;;5095433;28;20269;-66
2022/05/15 00:36:03;;;;;;;2.67;2.10;;;15.00;95.20;;;;;;5095568;28;20476;-66
2022/05/15 00:38:28;;;;;;;;;;;14.90;96.00;;;;;;5096535;28;20051;-66
2022/05/15 00:40:54;;;;;;;4.68;2.33;;;14.80;96.60;;;;;;5095690;28;20434;-65
2022/05/15 00:43:38;;;;;;;6.72;2.42;;;14.80;96.80;;;;;;5095921;28;20084;-65
2022/05/15 00:46:07;;;;;;;3.95;2.10;;;14.80;96.80;;;;;;5095076;28;20017;-65
2022/05/15 00:48:33;;;;;;;4.72;2.92;;;14.90;96.90;;;;;;5094997;28;20032;-65
2022/05/15 00:51:05;;;;;;;3.75;2.20;;;14.80;97.20;;;;;;5076795;28;20027;-66
2022/05/15 00:53:34;;;;;;;8.27;2.33;;;14.80;97.40;;;;;;5095061;28;20058;-66
2022/05/15 00:56:02;;;;;;;4.88;2.67;;;14.80;97.50;;;;;;5095325;28;20077;-66
2022/05/15 00:58:40;;;;;;;6.13;2.55;;;14.80;97.60;;;;;;5094645;28;20111;-66
2022/05/15 01:01:06;;;;;;;5.60;2.67;;;14.80;97.80;;;;;;5094993;28;20048;-67
2022/05/15 01:03:32;;;;;;;;;;;14.80;98.00;;;;;;5095508;28;20047;-67
2022/05/15 01:05:58;;;;;;;5.18;2.60;;;14.80;98.20;;;;;;5094617;28;20291;-67
2022/05/15 01:08:27;;;;;;;5.68;3.03;;;14.80;98.50;;;;;;5094781;28;20032;-67
2022/05/15 01:10:56;;;;;;;7.53;2.65;;;14.90;98.90;;;;;;5095212;28;20032;-66
2022/05/15 01:13:24;;;;;;;4.32;2.70;;;14.90;99.10;;;;;;5094635;28;20026;-67
2022/05/15 01:15:50;;;;;;;8.95;3.30;;;14.90;99.30;;;;;;5094618;28;20020;-65
2022/05/15 01:18:23;;;;;;;6.20;2.72;;;14.90;99.50;;;;;;5094589;28;20024;-66
2022/05/15 01:20:54;;;;;;;5.90;2.55;;;14.90;99.90;;;;;;5094617;28;20028;-66
2022/05/15 01:23:19;;;;;;;5.05;2.65;;;14.80;99.90;;;;;;5095028;28;20020;-65
2022/05/15 01:25:46;;;;;;;4.87;2.60;;;14.70;99.90;;;;;;5095192;28;20082;-66
2022/05/15 01:28:17;;;;;;;4.15;2.58;;;14.70;99.90;;;;;;5094444;28;20027;-66
2022/05/15 01:30:46;;;;;;;6.20;2.88;;;14.60;99.90;;;;;;5077344;28;20021;-65
2022/05/15 01:33:11;;;;;;;7.05;2.70;;;14.50;99.90;;;;;;5094618;28;20024;-66
2022/05/15 01:35:37;;;;;;;5.43;2.97;;;14.50;99.90;;;;;;5094390;28;20028;-67
2022/05/15 01:38:04;;;;;;;5.95;2.70;;;14.60;99.90;;;;;;5094088;28;20206;-65
2022/05/15 01:40:31;;;;;;;10.07;3.03;;;14.60;99.90;;;;;;5076023;28;20036;-66
2022/05/15 01:42:56;;;;;;;4.53;3.05;;;14.60;99.90;;;;;;5094057;28;20027;-66
2022/05/15 01:45:22;;;;;;;4.40;3.00;;;14.50;99.90;;;;;;5095206;28;20016;-66
2022/05/15 01:47:49;;;;;;;6.30;3.30;;;14.40;99.90;;;;;;5094018;28;20641;-65
2022/05/15 01:50:15;;;;;;;6.68;3.13;;;14.30;99.90;;;;;;5094195;28;20032;-65
2022/05/15 01:52:41;;;;;;;6.28;2.97;;;14.30;99.90;;;;;;5094324;28;20400;-65
2022/05/15 01:55:07;;;;;;;;;;;14.20;99.90;;;;;;5094625;28;20036;-66
2022/05/15 01:57:33;;;;;;;6.30;3.55;;;14.10;99.90;;;;;;5094081;28;19957;-65
2022/05/15 01:59:59;;;;;;;8.90;3.00;;;14.00;99.90;;;;;;5094702;28;20032;-65
2022/05/15 02:02:24;;;;;;;6.30;3.08;;;14.00;99.90;;;;;;5077045;28;20371;-65
2022/05/15 02:04:50;;;;;;;6.37;2.80;;;14.00;99.90;;;;;;5095245;28;20032;-66
2022/05/15 02:07:15;;;;;;;4.77;2.73;;;14.00;99.90;;;;;;5094587;28;20047;-66
2022/05/15 02:09:41;;;;;;;8.17;4.13;;;14.00;99.90;;;;;;5076283;28;20293;-66
2022/05/15 02:12:07;;;;;;;8.57;3.13;;;14.00;99.90;;;;;;5094635;28;20053;-67
2022/05/15 02:14:33;;;;;;;;;;;14.10;99.90;;;;;;5095142;28;20036;-67
2022/05/15 02:16:59;;;;;;;10.52;3.40;;;14.10;99.90;;;;;;5093568;28;19904;-67
2022/05/15 02:19:25;;;;;;;3.90;2.50;;;14.10;99.90;;;;;;5094669;28;20107;-67
2022/05/15 02:21:50;;;;;;;6.53;3.20;;;14.00;99.90;;;;;;5076006;28;20030;-66
2022/05/15 02:24:16;;;;;;;4.97;2.90;;;14.10;99.90;;;;;;5094304;28;20028;-66
2022/05/15 02:26:41;;;;;;;5.28;2.83;;;14.10;99.90;;;;;;5095112;28;20020;-66
2022/05/15 02:29:08;;;;;;;7.53;2.90;;;14.00;99.90;;;;;;5094849;28;20542;-66
2022/05/15 02:31:33;;;;;;;4.93;3.00;;;13.90;99.90;;;;;;5094611;28;20093;-65
2022/05/15 02:34:00;;;;;;;7.38;3.40;;;13.80;99.90;;;;;;5094877;28;20071;-65
2022/05/15 02:36:26;;;;;;;5.90;2.97;;;13.80;99.90;;;;;;5094765;28;20481;-65
2022/05/15 02:38:52;;;;;;;4.90;2.60;;;13.80;99.90;;;;;;5095111;28;20027;-65
2022/05/15 02:41:17;;;;;;;5.40;2.60;;;13.80;99.90;;;;;;5093883;28;20024;-65
2022/05/15 02:43:44;;;;;;;5.43;3.00;;;13.80;99.90;;;;;;5094064;28;20095;-65
2022/05/15 02:46:10;;;;;;;4.57;2.78;;;13.70;99.90;;;;;;5094308;28;20020;-64
2022/05/15 02:51:30;;;;;;;7.10;2.95;;;13.50;99.90;;;;;;5022138;28;20145;-65
2022/05/15 02:53:56;;;;;;;4.93;2.87;;;13.30;99.90;;;;;;5095096;28;20017;-65
2022/05/15 02:56:25;;;;;;;6.23;2.90;;;13.20;99.90;;;;;;5094082;28;20477;-65
2022/05/15 02:58:50;;;;;;;6.65;2.88;;;13.10;99.90;;;;;;5093541;28;20028;-64
2022/05/15 03:01:17;;;;;;;4.67;2.60;;;13.00;99.90;;;;;;5076793;28;20020;-64
2022/05/15 03:03:43;;;;;;;;;;;13.10;99.90;;;;;;5094376;28;20294;-64
2022/05/15 03:06:09;;;;;;;6.18;2.92;;;13.10;99.90;;;;;;5093638;28;19904;-65
2022/05/15 03:08:36;;;;;;;;;;;13.10;99.90;;;;;;5093739;28;20075;-66
2022/05/15 03:11:01;;;;;;;5.47;3.17;;;13.00;99.90;;;;;;5075534;28;20292;-65
2022/05/15 03:13:27;;;;;;;8.23;3.10;;;13.00;99.90;;;;;;5093812;28;20032;-66
2022/05/15 03:15:53;;;;;;;7.13;3.20;;;12.90;99.90;;;;;;5093424;28;20028;-66
2022/05/15 03:18:19;;;;;;;8.88;3.75;;;12.80;99.90;;;;;;5094087;28;20024;-66
2022/05/15 03:20:44;;;;;;;8.45;3.65;;;12.80;99.90;;;;;;5097668;28;20050;-65
2022/05/15 03:23:10;;;;;;;6.03;3.77;;;12.80;99.90;;;;;;5096412;28;20078;-65
2022/05/15 03:25:37;;;;;;;8.40;3.17;;;12.80;99.90;;;;;;5093906;28;20016;-65
2022/05/15 03:28:09;;;;;;;5.63;3.10;;;12.80;99.90;;;;;;5093956;28;20388;-66
2022/05/15 03:30:41;;;;;;;8.38;3.65;;;12.80;99.90;;;;;;5097632;28;20070;-66
2022/05/15 03:33:08;;;;;;;4.60;3.10;;;12.70;99.90;;;;;;5097544;28;20048;-66
2022/05/15 03:35:34;;;;;;;5.40;3.40;;;12.70;99.90;;;;;;5097305;28;20020;-66
2022/05/15 03:38:01;;;;;;;7.47;3.60;;;12.60;99.90;;;;;;5097444;28;20032;-66
2022/05/15 03:40:27;;;;;;;3.75;3.10;;;12.60;99.90;;;;;;5096684;28;20031;-66
2022/05/15 03:42:52;;;;;;;4.72;3.28;;;12.60;99.90;;;;;;5097629;28;20025;-65
2022/05/15 03:45:18;;;;;;;7.07;3.50;;;12.60;99.90;;;;;;5097238;28;20020;-65
2022/05/15 03:47:49;;;;;;;10.52;3.22;;;12.60;99.90;;;;;;5097322;28;20061;-65
2022/05/15 03:50:15;;;;;;;10.32;3.65;;;12.50;99.90;;;;;;5078979;28;20020;-65
2022/05/15 03:52:40;;;;;;;8.15;3.70;;;12.50;99.90;;;;;;5097463;28;20054;-65
2022/05/15 03:55:07;;;;;;;6.78;3.38;;;12.50;99.90;;;;;;5097184;28;20029;-66
2022/05/15 03:57:33;;;;;;;5.22;3.53;;;12.50;99.90;;;;;;5096772;28;20028;-65
2022/05/15 03:59:59;;;;;;;6.78;3.55;;;12.50;99.90;;;;;;5096676;28;20362;-65
2022/05/15 04:02:25;;;;;;;4.43;3.70;;;12.40;99.90;;;;;;5096675;28;20031;-65
2022/05/15 04:04:51;;;;;;;7.18;3.50;;;12.50;99.90;;;;;;5096368;28;20527;-65
2022/05/15 04:07:17;;;;;;;5.55;3.40;;;12.50;99.90;;;;;;5096020;28;20512;-65
2022/05/15 04:09:43;;;;;;;7.43;3.47;;;12.40;99.90;;;;;;5096033;28;20032;-65
2022/05/15 04:12:10;;;;;;;6.43;3.33;;;12.50;99.90;;;;;;5096123;28;20032;-65
2022/05/15 04:14:36;;;;;;;6.47;3.40;;;12.50;99.90;;;;;;5095915;28;20028;-65
2022/05/15 04:17:02;;;;;;;5.82;3.10;;;12.50;99.90;;;;;;5095829;28;20031;-65
2022/05/15 04:19:28;;;;;;;7.45;2.95;;;12.60;99.90;;;;;;5095432;28;20047;-65
2022/05/15 04:21:53;;;;;;;4.37;2.80;;;12.60;99.90;;;;;;5095628;28;20021;-65
2022/05/15 04:24:19;;;;;;;6.10;3.20;;;12.70;99.90;;;;;;5095708;28;20285;-65
2022/05/15 04:26:49;;;;;;;5.47;3.05;;;12.70;99.90;;;;;;5095369;28;20682;-65
2022/05/15 04:29:16;;;;;;;4.68;2.92;;;12.70;99.90;;;;;;5095614;28;20111;-65
2022/05/15 04:31:41;;;;;;;5.60;3.08;;;12.80;99.90;;;;;;5095843;28;20028;-65
2022/05/15 04:34:07;;;;;;;5.93;3.10;;;12.70;99.90;;;;;;5095666;28;20042;-66
2022/05/15 04:36:34;;;;;;;4.83;2.97;;;12.80;99.90;;;;;;5095582;28;20027;-65
2022/05/15 04:39:01;;;;;;;4.20;2.90;;;12.80;99.90;;;;;;5095377;28;20499;-65
2022/05/15 04:41:27;;;;;;;5.80;2.80;;;12.80;99.90;;;;;;5094966;28;20016;-65
2022/05/15 04:43:53;;;;;;;6.03;3.70;;;12.80;99.90;;;;;;5095593;28;20109;-65
2022/05/15 04:46:19;;;;;;;5.38;3.20;;;12.70;99.90;;;;;;5095591;28;20028;-66
2022/05/15 04:48:44;;;;;;;4.97;3.17;;;12.70;99.90;;;;;;5095124;28;20046;-65
2022/05/15 04:51:10;;;;;;;9.07;3.10;;;12.60;99.90;;;;;;5095184;28;20032;-64
2022/05/15 04:53:36;;;;;;;4.97;2.63;;;12.70;99.90;;;;;;5095168;28;20063;-65
2022/05/15 04:56:02;;;;;;;8.35;3.30;;;12.80;99.90;;;;;;5095308;28;20427;-65
2022/05/15 04:58:28;;;;;;;6.20;3.30;;;12.80;99.90;;;;;;5076748;28;20039;-65
2022/05/15 05:00:54;;;;;;;6.28;2.90;;;12.90;99.90;;;;;;5095092;28;20032;-64
2022/05/15 05:03:19;;;;;;;5.80;3.75;;;13.00;99.90;;;;;;5094872;28;20416;-65
2022/05/15 05:05:45;;;;;;;4.60;3.08;;;13.10;99.90;;;;;;5094817;28;20099;-65
2022/05/15 05:08:12;;;;;;;5.03;2.88;;;13.20;99.90;;;;;;5076750;28;20032;-66
2022/05/15 05:10:38;;;;;;;4.88;2.85;;;13.20;99.90;;;;;;5095003;28;20032;-65
2022/05/15 05:13:04;;;;;;;5.78;3.20;;;13.30;99.90;;;;;;5095364;28;20115;-65
2022/05/15 05:15:30;;;;;;;6.13;3.20;;;13.30;99.90;;;;;;5076967;28;20082;-66
2022/05/15 05:17:56;;;;;;;6.57;3.33;;;13.40;99.90;;;;;;5095648;28;20246;-67
2022/05/15 05:20:22;;;;;;;6.25;3.10;;;13.40;99.90;;;;;;5095622;28;20410;-66
2022/05/15 05:22:48;;;;;;;5.60;2.67;;;13.50;99.90;;;;;;5095611;28;20028;-66
2022/05/15 05:25:15;;;;;;;4.60;2.78;;;13.60;99.90;;;;;;5096858;28;20053;-66
2022/05/15 05:27:42;;;;;;;6.88;3.30;;;13.60;99.90;;;;;;5078145;28;20395;-65
2022/05/15 05:30:09;;;;;;;;;;;13.60;99.90;;;;;;5095875;28;20067;-65
2022/05/15 05:32:35;;;;;;;;;;;13.70;99.90;;;;;;5094742;28;19907;-65
2022/05/15 05:35:00;;;;;;;5.57;2.60;;;13.80;99.90;;;;;;5094271;28;20371;-65
2022/05/15 05:37:26;;;;;;;6.05;3.03;;;13.90;99.90;;;;;;5094409;28;20032;-65
2022/05/15 05:39:52;;;;;;;7.87;3.03;;;13.90;99.90;;;;;;5094121;28;20032;-65
2022/05/15 05:42:17;;;;;;;4.13;2.50;;;14.00;99.90;;;;;;5094726;28;20294;-65
2022/05/15 05:44:43;;;;;;;5.10;2.90;;;14.10;99.90;;;;;;5094939;28;20095;-65
2022/05/15 05:47:08;;;;;;;7.90;3.00;;;14.20;99.90;;;;;;5094000;28;20273;-65
2022/05/15 05:49:34;;;;;;;5.00;2.33;;;14.30;99.90;;;;;;5076032;28;20035;-64
2022/05/15 05:52:00;;;;;;;3.93;2.90;;;14.40;99.90;;;;;;5093263;28;20388;-64
2022/05/15 05:54:25;;;;;;;5.22;2.42;;;14.50;99.90;;;;;;5093883;28;20027;-65
2022/05/15 05:56:51;;;;;;;3.90;2.63;;;14.60;99.90;;;;;;5093902;28;20035;-65
2022/05/15 05:59:16;;;;;;;10.50;2.63;;;14.70;99.90;;;;;;5094154;28;20294;-65
2022/05/15 06:01:42;;;;;;;4.82;2.80;;;14.80;99.90;;;;;;5094245;28;20044;-66
2022/05/15 06:06:51;;;;;;;5.38;2.63;;;15.00;99.90;;;;;;5093547;28;20575;-66
2022/05/15 06:09:17;;;;;;;4.03;2.63;;;15.10;99.90;;;;;;5093578;28;20028;-62
2022/05/15 06:11:42;;;;;;;4.20;2.70;;;15.20;99.90;;;;;;5093940;28;20488;-65
2022/05/15 06:14:08;;;;;;;5.10;2.67;;;15.30;99.90;;;;;;5094546;28;20031;-67
2022/05/15 06:16:34;;;;;;;5.55;3.10;;;15.40;99.90;;;;;;5076852;28;20123;-69
2022/05/15 06:19:00;;;;;;;6.25;2.45;;;15.50;99.90;;;;;;5093552;28;20024;-66
2022/05/15 06:21:26;;;;;;;4.53;2.38;;;15.70;99.90;;;;;;5075627;28;20017;-67
2022/05/15 06:23:52;;;;;;;5.50;2.88;;;15.80;99.90;;;;;;5093751;28;20016;-66
2022/05/15 06:26:17;;;;;;;7.25;2.63;;;16.00;99.90;;;;;;5093407;28;20341;-66
2022/05/15 06:28:43;;;;;;;3.88;2.33;;;16.10;99.90;;;;;;5093149;28;20127;-66
2022/05/15 06:31:08;;;;;;;6.47;2.90;;;16.30;99.90;;;;;;5093341;28;20028;-69
2022/05/15 06:33:34;;;;;;;6.28;3.10;;;16.40;99.90;;;;;;5093623;28;20292;-71
2022/05/15 06:36:00;;;;;;;5.35;2.85;;;16.50;99.90;;;;;;5093098;28;20063;-67
2022/05/15 06:38:26;;;;;;;5.07;2.70;;;16.60;99.90;;;;;;5093188;28;20058;-65
2022/05/15 06:40:53;;;;;;;3.70;2.42;;;16.80;99.90;;;;;;5075354;28;20016;-70
2022/05/15 06:43:18;;;;;;;5.18;2.60;;;16.90;99.90;;;;;;5093898;28;20021;-67
2022/05/15 06:45:44;;;;;;;7.72;2.65;;;17.00;99.90;;;;;;5092807;28;20530;-67
2022/05/15 06:48:10;;;;;;;4.68;2.92;;;17.10;99.90;;;;;;5092776;28;20085;-67
2022/05/15 06:50:36;;;;;;;5.35;2.45;;;17.30;99.90;;;;;;5093150;28;20130;-68
2022/05/15 06:53:02;;;;;;;3.72;2.38;;;17.40;99.90;;;;;;5092884;28;20027;-69
2022/05/15 06:55:28;;;;;;;;;;;17.60;99.90;;;;;;5093472;28;20499;-68
2022/05/15 06:57:55;;;;;;;4.07;2.40;;;17.70;99.90;;;;;;5074907;28;19940;-67
2022/05/15 07:00:27;;;;;;;4.95;2.92;;;17.80;99.50;;;;;;5093463;28;20024;-66
2022/05/15 07:02:53;;;;;;;5.07;2.53;;;17.90;98.80;;;;;;5093989;28;20039;-66
2022/05/15 07:05:25;;;;;;;5.35;2.47;;;18.10;98.90;;;;;;5097357;28;20449;-68
2022/05/15 07:07:54;;;;;;;6.47;2.33;;;18.30;98.10;;;;;;5098559;28;20024;-67
2022/05/15 07:10:20;;;;;;;4.22;2.05;;;18.40;97.90;;;;;;5097132;28;20038;-66
2022/05/15 07:12:46;;;;;;;5.57;2.30;;;18.60;97.40;;;;;;5079119;28;20131;-66
2022/05/15 07:15:12;;;;;;;3.33;2.33;;;18.80;96.70;;;;;;5079225;28;20440;-65
2022/05/15 07:17:37;;;;;;;11.85;3.20;;;18.90;96.30;;;;;;5079398;28;20031;-67
2022/05/15 07:20:04;;;;;;;6.03;2.17;;;19.10;96.10;;;;;;5078780;28;20123;-66
2022/05/15 07:22:29;;;;;;;4.20;2.50;;;19.20;95.60;;;;;;5096673;28;20020;-66
2022/05/15 07:24:56;;;;;;;6.43;2.30;;;19.20;95.80;;;;;;5097144;28;20031;-65
2022/05/15 07:27:21;;;;;;;3.40;2.15;;;19.30;95.60;;;;;;5097083;28;20024;-66
2022/05/15 07:29:47;;;;;;;7.30;2.90;;;19.40;95.50;;;;;;5096500;28;20177;-65
2022/05/15 07:32:13;;;;;;;7.00;2.65;;;19.50;95.60;;;;;;5096797;28;20036;-66
2022/05/15 07:34:40;;;;;;;6.47;2.53;;;19.60;95.40;;;;;;5078208;28;20439;-66
2022/05/15 07:37:06;;;;;;;3.92;2.20;;;19.70;95.40;;;;;;5078323;28;20374;-65
2022/05/15 07:39:32;;;;;;;2.90;2.00;;;19.80;95.20;;;;;;5096525;28;20068;-66
2022/05/15 07:41:57;;;;;;;4.50;2.15;;;19.90;95.10;;;;;;5096483;28;20102;-66
2022/05/15 07:44:23;;;;;;;6.22;2.60;;;20.00;94.80;;;;;;5096567;28;20117;-68
2022/05/15 07:46:49;;;;;;;2.95;1.95;;;20.10;94.70;;;;;;5096473;28;20027;-68
2022/05/15 07:49:15;;;;;;;5.47;2.10;;;20.20;94.60;;;;;;5096198;28;20094;-67
2022/05/15 07:51:44;;;;;;;4.30;2.25;;;20.40;94.40;;;;;;5078247;28;20024;-67
2022/05/15 07:54:11;;;;;;;4.68;2.30;;;20.50;94.10;;;;;;5078192;28;20051;-72
2022/05/15 07:56:37;;;;;;;3.38;1.95;;;20.70;93.60;;;;;;5078169;28;20537;-67
2022/05/15 07:59:03;;;;;;;5.07;2.33;;;21.20;93.60;;;;;;5095874;28;20115;-68
2022/05/15 08:01:29;;;;;;;9.02;1.95;;;22.30;92.10;;;;;;5096719;28;20362;-66
2022/05/15 08:03:55;;;;;;;3.80;2.03;;;23.40;90.40;;;;;;5095950;28;20103;-66
2022/05/15 08:09:07;;;;;;;6.55;2.20;;;25.00;83.70;;;;;;5095830;28;20379;-65
2022/05/15 08:11:33;;;;;;;3.90;1.80;;;25.50;81.30;;;;;;5095656;28;20161;-65
2022/05/15 08:14:02;;;;;;;4.95;1.95;;;25.90;78.60;;;;;;5095305;28;20028;-65
2022/05/15 08:16:29;;;;;;;4.18;2.38;;;27.10;76.70;;;;;;5094661;28;20028;-66
2022/05/15 08:24:24;;;;;;;4.80;2.10;;;29.10;67.50;;;;;;5095820;28;20032;-66
2022/05/15 08:26:50;;;;;;;7.45;1.80;;;29.20;66.60;;;;;;5095164;28;20032;-66
2022/05/15 08:29:18;;;;;;;5.28;1.83;;;29.10;65.50;;;;;;5095344;28;20016;-67
2022/05/15 08:31:43;;;;;;;6.65;3.55;;;29.30;64.70;;;;;;5095963;28;20020;-65
2022/05/15 08:34:09;;;;;;;17.10;14.60;;;30.30;63.70;;;;;;5095176;28;20020;-65
2022/05/15 08:36:36;;;;;;;5.03;3.65;;;31.00;61.70;;;;;;5096002;28;20078;-65
2022/05/15 08:39:03;;;;;;;5.95;2.50;;;31.50;60.20;;;;;;5076539;28;20035;-65
2022/05/15 08:41:32;;;;;;;5.57;2.80;;;32.10;58.50;;;;;;5095285;28;20090;-65
2022/05/15 08:44:18;;;;;;;5.53;2.85;;;32.10;57.20;;;;;;5095099;28;20024;-65
2022/05/15 08:46:49;;;;;;;4.18;2.58;;;31.40;58.00;;;;;;5095467;28;20396;-65
2022/05/15 08:49:41;;;;;;;4.20;1.77;;;31.60;57.30;;;;;;5094635;28;20036;-66
2022/05/15 08:52:11;;;;;;;4.20;2.35;;;31.60;57.10;;;;;;5095089;28;20093;-66
2022/05/15 08:55:06;;;;;;;2.78;2.15;;;32.70;56.10;;;;;;5076758;28;20515;-65
2022/05/15 08:58:00;;;;;;;5.00;2.13;;;32.00;55.40;;;;;;5092421;28;20036;-66
2022/05/15 09:00:38;;;;;;;4.60;2.38;;;32.30;54.60;;;;;;5095181;28;20027;-65
2022/05/15 09:03:17;;;;;;;4.47;1.88;;;32.80;54.00;;;;;;5094985;28;20129;-67
2022/05/15 09:06:07;;;;;;;4.10;1.75;;;33.00;53.50;;;;;;5095021;28;20032;-67
2022/05/15 09:08:51;;;;;;;3.40;1.88;;;32.30;53.40;;;;;;5076770;28;20016;-67
2022/05/15 09:11:32;;;;;;;3.08;1.80;;;31.20;54.10;;;;;;5094873;28;20036;-65
2022/05/15 09:14:14;;;;;;;3.45;1.67;;;30.20;55.20;;;;;;5095054;28;20368;-65
2022/05/15 09:16:51;;;;;;;3.92;1.67;;;30.60;54.80;;;;;;5095052;28;20024;-65
2022/05/15 09:19:17;;;;;;;6.07;2.10;;;31.40;53.50;;;;;;5094101;28;20016;-66
2022/05/15 09:21:42;;;;;;;4.13;2.17;;;31.00;54.30;;;;;;5094054;28;20127;-66
2022/05/15 09:24:17;;;;;;;3.85;1.67;;;31.60;53.30;;;;;;5094286;28;20020;-65
2022/05/15 09:26:45;;;;;;;5.00;1.83;;;32.40;53.10;;;;;;5094157;28;20039;-66
2022/05/15 09:29:26;;;;;;;6.20;1.60;;;33.30;52.40;;;;;;5094702;28;20139;-66
2022/05/15 09:31:53;;;;;;;4.97;1.90;;;33.70;51.20;;;;;;5076103;28;20050;-64
2022/05/15 09:34:26;;;;;;;5.10;1.63;;;33.20;51.00;;;;;;5094434;28;20032;-66
2022/05/15 09:38:26;;;;;;;3.65;1.52;;;32.80;51.00;;;;;;5094501;28;20095;-63
2022/05/15 09:39:46;;;;;;;3.38;1.40;;;32.30;51.80;;;;;;5093558;28;20036;-66
2022/05/15 09:45:25;;;;;;;4.30;1.40;;;32.40;50.70;;;;;;5094180;28;20507;-67
2022/05/15 09:47:51;;;;;;;4.35;1.63;;;33.70;50.60;;;;;;5075867;28;20046;-67
2022/05/15 09:50:36;;;;;;;4.57;2.00;;;33.60;50.40;;;;;;5094009;28;20106;-66
2022/05/15 09:53:12;;;;;;;4.70;1.67;;;33.70;50.30;;;;;;5094004;28;20024;-67
2022/05/15 09:55:38;;;;;;;9.60;1.75;;;33.30;50.50;;;;;;5075592;28;20038;-66
2022/05/15 09:58:19;;;;;;;3.90;1.40;;;33.90;50.20;;;;;;5093730;28;20016;-66
2022/05/15 10:00:45;;;;;;;3.80;1.58;;;33.60;50.10;;;;;;5093846;28;20444;-63
2022/05/15 10:03:23;;;;;;;5.15;1.58;;;33.10;50.40;;;;;;5094217;28;20056;-65
2022/05/15 10:06:03;;;;;;;4.85;1.48;;;32.70;51.20;;;;;;5094028;28;20016;-65
2022/05/15 10:08:30;;;;;;;3.30;1.40;;;33.50;50.90;;;;;;5093771;28;20027;-67
2022/05/15 10:11:21;;;;;;;3.78;1.60;;;34.50;49.20;;;;;;5093674;28;20031;-64
2022/05/15 10:13:52;;;;;;;5.85;1.52;;;35.40;48.90;;;;;;5093352;28;20036;-63
2022/05/15 10:16:18;;;;;;;3.50;1.35;;;33.90;49.60;;;;;;5093672;28;20499;-63
2022/05/15 10:19:02;;;;;;;3.08;1.58;;;33.20;49.60;;;;;;5075133;28;20027;-62
2022/05/15 10:21:43;;;;;;;3.63;1.20;;;32.80;50.20;;;;;;5094338;28;20016;-64
2022/05/15 10:24:22;;;;;;;4.10;1.88;;;34.10;49.60;;;;;;5075591;28;20024;-63
2022/05/15 10:27:18;;;;;;;5.60;1.48;;;33.90;49.00;;;;;;5094330;28;20031;-63
2022/05/15 10:29:57;;;;;;;6.18;1.60;;;34.10;48.90;;;;;;5093601;28;20385;-64
2022/05/15 10:32:46;;;;;;;5.40;1.55;;;33.60;48.80;;;;;;5093393;28;20112;-63
2022/05/15 10:35:16;;;;;;;5.57;1.60;;;34.60;47.60;;;;;;5093491;28;20358;-66
2022/05/15 10:37:47;;;;;;;4.55;1.48;;;33.90;48.40;;;;;;5092403;28;20389;-70
2022/05/15 10:40:34;;;;;;;4.50;1.50;;;33.40;48.80;;;;;;5093828;28;20544;-66
2022/05/15 10:43:06;;;;;;;4.20;1.70;;;33.00;48.90;;;;;;5093507;28;20445;-66
2022/05/15 10:45:44;;;;;;;5.18;1.65;;;32.70;49.40;;;;;;5075639;28;20020;-65
2022/05/15 10:48:45;;;;;;;2.58;1.60;;;32.50;49.50;;;;;;5093407;28;20032;-63
2022/05/15 10:51:24;;;;;;;5.07;1.40;;;32.80;49.60;;;;;;5093326;28;20039;-65
2022/05/15 10:57:28;;;;;;;4.05;1.52;;;31.30;50.00;;;;;;5092877;28;20047;-64
2022/05/15 10:59:57;;;;;;;5.32;1.70;;;31.30;50.40;;;;;;5092720;28;20020;-66
2022/05/15 11:02:43;;;;;;;6.40;1.40;;;31.30;50.40;;;;;;5092943;28;20141;-66
2022/05/15 11:05:11;;;;;;;5.43;1.53;;;31.00;50.50;;;;;;5093208;28;20036;-65
2022/05/15 11:07:51;;;;;;;3.50;1.50;;;30.20;51.50;;;;;;5092694;28;20043;-65
2022/05/15 11:10:33;;;;;;;5.20;1.50;;;29.00;52.40;;;;;;5074470;28;20028;-66
2022/05/15 11:13:09;;;;;;;2.63;1.40;;;28.60;53.40;;;;;;5093547;28;20043;-65
2022/05/15 11:15:56;;;;;;;3.05;1.25;;;28.60;53.20;;;;;;5093040;28;20024;-65
2022/05/15 11:18:49;;;;;;;3.00;1.48;;;28.40;54.20;;;;;;5093270;28;20448;-66
2022/05/15 11:21:47;;;;;;;4.18;1.95;;;28.20;54.30;;;;;;5093528;28;20028;-63
2022/05/15 11:24:29;;;;;;;2.97;1.40;;;27.70;54.70;;;;;;5074601;28;20028;-67
2022/05/15 11:27:00;;;;;;;2.30;1.50;;;27.30;55.70;;;;;;5093014;28;20020;-67
2022/05/15 11:29:30;;;;;;;6.72;1.60;;;27.10;56.10;;;;;;5092805;28;20195;-67
2022/05/15 11:31:58;;;;;;;3.85;1.98;;;27.20;55.60;;;;;;5092703;28;20115;-67
2022/05/15 11:35:01;;;;;;;3.58;1.75;;;27.20;55.60;;;;;;5093344;28;20477;-64
2022/05/15 11:37:38;;;;;;;3.13;1.48;;;27.10;55.90;;;;;;5092512;28;20032;-65
2022/05/15 11:40:28;;;;;;;3.53;1.40;;;27.00;56.00;;;;;;5093027;28;20023;-65
2022/05/15 11:42:53;;;;;;;5.05;1.80;;;27.00;56.00;;;;;;5074245;28;20092;-66
2022/05/15 11:45:28;;;;;;;;;;;27.10;56.70;;;;;;5093352;28;20017;-68
2022/05/15 11:47:58;;;;;;;3.28;1.70;;;26.90;56.30;;;;;;5093172;28;19922;-64
2022/05/15 11:50:43;;;;;;;3.60;1.58;;;26.90;56.90;;;;;;5095483;28;20024;-66
2022/05/15 11:53:13;;;;;;;2.67;1.60;;;27.00;56.70;;;;;;5096802;28;20453;-64
2022/05/15 11:55:45;;;;;;;5.75;1.60;;;27.00;57.00;;;;;;5096549;28;20028;-65
2022/05/15 11:58:26;;;;;;;5.07;1.50;;;27.10;56.80;;;;;;5096123;28;20032;-68
2022/05/15 12:01:23;;;;;;;7.80;2.45;;;27.00;56.60;;;;;;5077949;28;20026;-66
2022/05/15 12:03:50;;;;;;;2.78;1.42;;;27.10;57.60;;;;;;5077785;28;20170;-65
2022/05/15 12:06:22;;;;;;;4.88;2.13;;;27.10;57.10;;;;;;5096149;28;20016;-65
2022/05/15 12:09:12;;;;;;;5.60;1.88;;;27.10;57.30;;;;;;5096861;28;20369;-65
2022/05/15 12:11:38;;;;;;;7.50;1.58;;;27.00;57.20;;;;;;5096096;28;20158;-66
2022/05/15 12:14:25;;;;;;;3.78;2.70;;;27.10;57.40;;;;;;5095956;28;20152;-67
2022/05/15 12:16:59;;;;;;;4.18;1.35;;;27.30;57.40;;;;;;5096420;28;20024;-65
2022/05/15 12:19:37;;;;;;;2.95;1.40;;;27.20;57.20;;;;;;5096359;28;20035;-65
2022/05/15 12:22:08;;;;;;;13.18;3.28;;;27.10;57.40;;;;;;5078557;28;20020;-66
2022/05/15 12:24:37;;;;;;;17.50;8.23;;;27.10;57.60;;;;;;5077713;28;20500;-63
2022/05/15 12:27:20;;;;;;;9.25;2.97;;;26.90;57.50;;;;;;5096384;28;20024;-65
2022/05/15 12:30:08;;;;;;;10.45;4.68;;;26.80;58.10;;;;;;5097218;28;20373;-65
2022/05/15 12:32:47;;;;;;;7.88;3.50;;;26.90;58.30;;;;;;5095718;28;20477;-66
2022/05/15 12:35:33;;;;;;;144.15;51.25;;;27.10;58.50;;;;;;5096251;28;20059;-66
2022/05/15 12:38:06;;;;;;;20.55;10.65;;;27.00;58.30;;;;;;5095892;28;20032;-66
2022/05/15 12:40:37;;;;;;;117.88;49.58;;;27.00;58.60;;;;;;5095539;28;20105;-66
2022/05/15 12:43:18;;;;;;;23.80;11.80;;;27.00;59.00;;;;;;5095864;28;20020;-66
2022/05/15 12:45:43;;;;;;;8.52;3.17;;;27.10;58.80;;;;;;5095923;28;20092;-64
2022/05/15 12:48:10;;;;;;;;;;;27.10;59.10;;;;;;5077305;28;20070;-66
2022/05/15 12:50:48;;;;;;;;;;;27.20;58.90;;;;;;5077616;28;20379;-66
2022/05/15 12:53:20;;;;;;;48.20;18.38;;;27.30;58.60;;;;;;5077674;28;20391;-66
2022/05/15 12:55:45;;;;;;;16.20;8.05;;;27.40;58.60;;;;;;5098681;28;20081;-67
2022/05/15 12:58:11;;;;;;;11.35;7.30;;;27.50;58.30;;;;;;5097824;28;20059;-67
2022/05/15 13:00:39;;;;;;;11.82;3.83;;;27.60;59.10;;;;;;5079025;28;20143;-65
2022/05/15 13:03:08;;;;;;;8.48;4.43;;;27.50;58.30;;;;;;5079525;28;20085;-66
2022/05/15 13:05:38;;;;;;;5.60;3.30;;;27.30;58.60;;;;;;5098181;28;20051;-66
2022/05/15 13:08:08;;;;;;;5.95;1.73;;;27.40;58.80;;;;;;5097787;28;20028;-65
2022/05/15 13:10:35;;;;;;;41.47;23.27;;;27.40;58.90;;;;;;5097130;28;20028;-66
2022/05/15 13:13:18;;;;;;;5.05;2.50;;;27.30;60.00;;;;;;5098070;28;20020;-66
2022/05/15 13:15:48;;;;;;;6.95;3.42;;;27.30;59.40;;;;;;5097921;28;20024;-66
2022/05/15 13:18:14;;;;;;;15.55;8.30;;;27.10;59.30;;;;;;5096636;28;20115;-66
2022/05/15 13:20:43;;;;;;;6.75;2.60;;;27.10;59.60;;;;;;5097551;28;20460;-66
2022/05/15 13:23:11;;;;;;;7.97;2.97;;;27.20;59.20;;;;;;5098612;28;20042;-67
2022/05/15 13:25:49;;;;;;;9.30;3.70;;;27.30;58.80;;;;;;5097356;28;20418;-65